Colbert, WA

2:21 PM PST on December 20, 2014 (GMT -0800)
Little Spokane/Shady Slope | Change Station
CLOSE
Current Station
Personal Weather Station
Location: Spokane, WA
Elevation: 1667 ft
Nearby Weather Stations

Elev 1667 ft 47.80 °N, 117.38 °W | Updated 4 seconds ago

Overcast
Overcast
40.6 °F
Feels Like 41 °F
N
0.0
Wind Variable Wind from NNE
Gusts 0.0 mph

Today
High -- | Low -- °F
--% Chance of Precip.
Yesterday
High -- | Low -- °F
Precip. -- in
7:35 AM 3:59 PM
Waning Crescent, 2% visible
Pressure 29.73 in
Visibility 1.8 miles
Clouds Mostly Cloudy 500 ft
Overcast 800 ft
Windchill 41 °F
Dew Point 40 °F
Humidity 96%
Rainfall 0.07 in
Snow Depth Not available.
UV 1.0 out of 12
Pollen .10 out of 12
Air Quality Not available.
Flu Activity Not available.
METAR KDEW 202202Z AUTO 08005KT 1 3/4SM -RA BR BKN005 OVC008 04/03 A2973 RMK AO2 P0000 T00390033

More Conditions Fewer Conditions

Pressure 29.73 in
Visibility 1.8 miles
Clouds Mostly Cloudy 500 ft
Overcast 800 ft
Windchill 41 °F
Dew Point 40 °F
Humidity 96%
Rainfall 0.07 in
Snow Depth Not available.
UV 1.0 out of 12
Pollen .10 out of 12
Air Quality Not available.
Flu Activity Not available.
METAR KDEW 202202Z AUTO 08005KT 1 3/4SM -RA BR BKN005 OVC008 04/03 A2973 RMK AO2 P0000 T00390033

More Conditions Fewer Conditions

10-Day Weather Forecast

Almanac

Astronomy

Dec. 20, 2014 Rise Set
Actual Time
Civil Twilight
Nautical Twilight
Astronomical Twilight
Moon
Length of Visible Light
Length of Day
Tomorrow will be .
, % of the Moon is Illuminated

Today's Extremes

State Highs State Lows

Community

WunderPhotos

Upload Photos

1,779,291 photos uploaded!

WunderBlogs® & News

Nearby

Air Quality

  Air Quality AQ Index Pollutant
Not available.

Snow Depth

Station Depth Elevation

Earthquake Activity

City Distance Mag. Time & Date
Minimum magnitude displayed is 2.5.

Coastal Water Temperatures

Place Temperature

Nearby Weather Stations